Scott Turecamo — WDE6822 — position and weather

sailwx.info

Track history (hours):
 
Tides and Currents Weather Stations Pressure Air Temp Water Temp Dewpoint Dewpoint Depression Visibility Wind Speed Wind Dir Waves Ship Positions

Scott Turecamo

Owner: Moran Towing Corp., New Canaan, CT. More information available from US FCC via Universal Licensing System and Coast Guard Vessel Documentation Center.

Last reported at 2017-Sep-24 09:58 UTC. Time now 2017-Sep-24 10:19 UTC.
Position N 40°38' W 074°12'.

Length 156 m; draft 5 m.

Type: . MMSI: 368009000.

Date/timePositionNaut miles runAvg speedWind from/ knotsBaromVisibWave heightAir tempDewpointWater temp
2017-Sep-24 09:58N 40°38' W 074°12'0 0.0
2017-Sep-24 09:28N 40°38' W 074°12'0 0.0
2017-Sep-24 08:58N 40°38' W 074°12'0 0.0
2017-Sep-24 08:30N 40°38' W 074°12'1 1.4
2017-Sep-24 08:00N 40°38' W 074°12'3 6.1
2017-Sep-24 07:29N 40°39' W 074°08'3 6.3
2017-Sep-24 07:00N 40°39' W 074°03'1 1.0
2017-Sep-24 06:27N 40°38' W 074°03'0 0.1
2017-Sep-24 06:00N 40°38' W 074°03'0 0.3
2017-Sep-24 05:30N 40°38' W 074°03'0 0.1
2017-Sep-24 05:00N 40°38' W 074°03'0 0.0
2017-Sep-24 04:30N 40°38' W 074°03'0 0.0
2017-Sep-24 04:00N 40°38' W 074°03'0 0.0
2017-Sep-24 03:30N 40°38' W 074°03'0 0.0
2017-Sep-24 03:00N 40°38' W 074°03'0 0.0
2017-Sep-24 02:30N 40°38' W 074°03'0 0.0
2017-Sep-24 02:00N 40°38' W 074°03'0 0.0
2017-Sep-24 01:30N 40°38' W 074°03'0 0.1
2017-Sep-24 01:00N 40°38' W 074°03'0 0.0
2017-Sep-24 00:30N 40°38' W 074°03'0 0.0
2017-Sep-24 00:00N 40°38' W 074°03'0 0.2
2017-Sep-23 23:30N 40°38' W 074°03'0 0.3
2017-Sep-23 22:57N 40°38' W 074°03'0 0.0
2017-Sep-23 22:30N 40°38' W 074°03'0 0.0
2017-Sep-23 22:00N 40°38' W 074°03'0 0.0
2017-Sep-23 21:21N 40°38' W 074°03'0 0.0
2017-Sep-23 21:00N 40°38' W 074°03'0 0.0
2017-Sep-23 20:30N 40°38' W 074°03'0 0.0
2017-Sep-23 20:00N 40°38' W 074°03'3 0.1
2017-Sep-22 01:56N 40°39' W 074°07'0 0.0
2017-Sep-22 01:26N 40°39' W 074°07'0 0.0
2017-Sep-22 00:59N 40°39' W 074°07'0 0.0
2017-Sep-22 00:29N 40°39' W 074°07'0 0.0
2017-Sep-21 23:59N 40°39' W 074°07'0 0.0
2017-Sep-21 23:29N 40°39' W 074°07'0 0.0
2017-Sep-21 22:59N 40°39' W 074°07'0 0.0
2017-Sep-21 22:29N 40°39' W 074°07'0 0.0
2017-Sep-21 21:59N 40°39' W 074°07'0 0.0
2017-Sep-21 21:29N 40°39' W 074°07'0 0.0
2017-Sep-21 20:59N 40°39' W 074°07'0 0.0
2017-Sep-21 20:30N 40°39' W 074°07'1 1.5
2017-Sep-21 20:00N 40°39' W 074°06'3 5.5
2017-Sep-21 19:30N 40°37' W 074°03'2 4.2
2017-Sep-21 19:00N 40°36' W 074°01'0 0.0
2017-Sep-21 18:30N 40°36' W 074°01'0 0.0
2017-Sep-21 18:00N 40°36' W 074°01'0 0.0
2017-Sep-21 17:29N 40°36' W 074°01'0 0.0
2017-Sep-21 16:59N 40°36' W 074°01'1 1.7
2017-Sep-21 16:30N 40°36' W 074°02'4 7.7
2017-Sep-21 16:00N 40°39' W 074°06'4 8.4
2017-Sep-21 15:30N 40°39' W 074°11'1 2.3
2017-Sep-21 15:00N 40°38' W 074°12'0 0.0
2017-Sep-21 14:30N 40°38' W 074°12'0 0.0
2017-Sep-21 14:00N 40°38' W 074°12'0 0.0
2017-Sep-21 13:30N 40°38' W 074°12'0 0.0
2017-Sep-21 13:00N 40°38' W 074°12'0 0.0
2017-Sep-21 12:30N 40°38' W 074°12'0 0.0
2017-Sep-21 12:00N 40°38' W 074°12'0 0.0
2017-Sep-21 11:30N 40°38' W 074°12'0 0.0
2017-Sep-21 11:00N 40°38' W 074°12'0 0.0
2017-Sep-21 10:30N 40°38' W 074°12'0 0.0
2017-Sep-21 10:00N 40°38' W 074°12'0 0.0
2017-Sep-21 09:30N 40°38' W 074°12'0 0.0
2017-Sep-21 09:00N 40°38' W 074°12'0 0.0
2017-Sep-21 08:29N 40°38' W 074°12'0 0.0
2017-Sep-21 08:00N 40°38' W 074°12'0 0.0
2017-Sep-21 07:30N 40°38' W 074°12'0 0.0
2017-Sep-21 07:00N 40°38' W 074°12'0 0.0
2017-Sep-21 06:30N 40°38' W 074°12'0 0.0
2017-Sep-21 06:00N 40°38' W 074°12'0 0.0
2017-Sep-21 05:30N 40°38' W 074°12'0 0.0
2017-Sep-21 05:00N 40°38' W 074°12'0 0.0
2017-Sep-21 04:30N 40°38' W 074°12'0 0.0
2017-Sep-21 03:54N 40°38' W 074°12'0 0.0
2017-Sep-21 03:30N 40°38' W 074°12'0 0.0
2017-Sep-21 03:00N 40°38' W 074°12'0 0.0
2017-Sep-21 02:29N 40°38' W 074°12'0 0.0
2017-Sep-21 02:00N 40°38' W 074°12'0 0.0
2017-Sep-21 01:30N 40°38' W 074°12'0 0.0
2017-Sep-21 01:00N 40°38' W 074°12'0 0.0
2017-Sep-21 00:30N 40°38' W 074°12'0 0.0
2017-Sep-21 00:00N 40°38' W 074°12'0 0.0
2017-Sep-20 23:30N 40°38' W 074°12'0 0.0
2017-Sep-20 23:00N 40°38' W 074°12'0 0.0
2017-Sep-20 22:30N 40°38' W 074°12'0 0.0
2017-Sep-20 22:00N 40°38' W 074°12'0 0.0
2017-Sep-20 21:30N 40°38' W 074°12'0 0.0
2017-Sep-20 21:00N 40°38' W 074°12'0 0.0
2017-Sep-20 20:30N 40°38' W 074°12'0 0.0
2017-Sep-20 20:00N 40°38' W 074°12'0 0.0
2017-Sep-20 19:30N 40°38' W 074°12'0 0.0
2017-Sep-20 19:00N 40°38' W 074°12'0 0.0
2017-Sep-20 18:30N 40°38' W 074°12'0 0.0
2017-Sep-20 18:00N 40°38' W 074°12'0 0.0
2017-Sep-20 17:30N 40°38' W 074°12'0 0.0
2017-Sep-20 17:00N 40°38' W 074°12'0 0.0
2017-Sep-20 16:30N 40°38' W 074°12'0 0.0
2017-Sep-20 16:00N 40°38' W 074°12'0 0.0
2017-Sep-20 15:30N 40°38' W 074°12'0 0.0
2017-Sep-20 15:00N 40°38' W 074°12'4 4.3
2017-Sep-20 14:00N 40°39' W 074°07'3 6.6
2017-Sep-20 13:30N 40°37' W 074°03'2 3.5
2017-Sep-20 12:58N 40°36' W 074°01'0 0.0
2017-Sep-20 12:25N 40°36' W 074°01'0 0.0
2017-Sep-20 11:58N 40°36' W 074°01'0 0.0
2017-Sep-20 11:28N 40°36' W 074°01'0 0.0
2017-Sep-20 10:58N 40°36' W 074°01'0 0.0
2017-Sep-20 10:28N 40°36' W 074°01'0 0.0
2017-Sep-20 10:00N 40°36' W 074°01'1 1.7
2017-Sep-20 09:30N 40°36' W 074°02'4 7.4
2017-Sep-20 09:00N 40°39' W 074°06'0 0.0
2017-Sep-20 08:30N 40°39' W 074°06'0 0.0
2017-Sep-20 08:00N 40°39' W 074°06'0 0.0
2017-Sep-20 07:30N 40°39' W 074°06'0 0.0
2017-Sep-20 07:00N 40°39' W 074°06'0 0.0
2017-Sep-20 06:30N 40°39' W 074°06'0 0.0
2017-Sep-20 06:00N 40°39' W 074°06'0 0.0
2017-Sep-20 05:30N 40°39' W 074°06'0 0.0
2017-Sep-20 05:00N 40°39' W 074°06'0 0.0
2017-Sep-20 04:30N 40°39' W 074°06'0 0.0
2017-Sep-20 04:00N 40°39' W 074°06'0 0.0
2017-Sep-20 03:30N 40°39' W 074°06'0 0.0
2017-Sep-20 03:00N 40°39' W 074°06'0 0.0
2017-Sep-20 02:30N 40°39' W 074°06'0 0.0
2017-Sep-20 02:00N 40°39' W 074°06'0 0.0
2017-Sep-20 01:30N 40°39' W 074°06'0 0.0
2017-Sep-20 01:00N 40°39' W 074°06'0 0.0
2017-Sep-20 00:30N 40°39' W 074°06'0 0.0
2017-Sep-20 00:00N 40°39' W 074°06'0 0.0
2017-Sep-19 23:30N 40°39' W 074°06'0 0.0
2017-Sep-19 23:00N 40°39' W 074°06'0 0.0
2017-Sep-19 22:30N 40°39' W 074°06'0 0.0
2017-Sep-19 22:00N 40°39' W 074°06'0 0.0
2017-Sep-19 21:30N 40°39' W 074°06'0 0.0
2017-Sep-19 21:00N 40°39' W 074°06'0 0.0
2017-Sep-19 20:30N 40°39' W 074°06'0 0.0
2017-Sep-19 20:00N 40°39' W 074°06'0 0.0
2017-Sep-19 19:30N 40°39' W 074°06'0 0.0
2017-Sep-19 19:00N 40°39' W 074°06'1 1.5
2017-Sep-19 18:30N 40°39' W 074°06'0 0.2
2017-Sep-19 17:57N 40°39' W 074°07'0 0.0
2017-Sep-19 17:18N 40°39' W 074°07'1 2.7
2017-Sep-19 16:54N 40°38' W 074°08'0 0.0
2017-Sep-19 16:27N 40°38' W 074°08'1 1.1
2017-Sep-19 16:00N 40°39' W 074°07'1 0.9
2017-Sep-19 15:25N 40°39' W 074°07'0 0.0
2017-Sep-19 14:58N 40°39' W 074°07'0 0.0
2017-Sep-19 14:22N 40°39' W 074°07'0 0.0
2017-Sep-19 13:55N 40°39' W 074°07'0 0.0
2017-Sep-19 13:28N 40°39' W 074°07'0 0.0
2017-Sep-19 12:55N 40°39' W 074°07'0 0.0
2017-Sep-19 12:25N 40°39' W 074°07'0 0.0
2017-Sep-19 11:55N 40°39' W 074°07'0 0.0
2017-Sep-19 11:31N 40°39' W 074°07'0 0.0
2017-Sep-19 11:01N 40°39' W 074°07'0 0.0
2017-Sep-19 10:30N 40°39' W 074°07'0 0.0
2017-Sep-19 10:00N 40°39' W 074°07'0 0.0
2017-Sep-19 09:27N 40°39' W 074°07'0 0.0
2017-Sep-19 09:00N 40°39' W 074°07'0 0.0
2017-Sep-19 08:30N 40°39' W 074°07'0 0.0
2017-Sep-19 08:00N 40°39' W 074°07'0 0.0
2017-Sep-19 07:27N 40°39' W 074°07'0 0.0
2017-Sep-19 07:00N 40°39' W 074°07'0 0.0
2017-Sep-19 06:30N 40°39' W 074°07'0 0.0
2017-Sep-19 06:00N 40°39' W 074°07'0 0.0
2017-Sep-19 05:27N 40°39' W 074°07'0 0.0
2017-Sep-19 05:00N 40°39' W 074°07'0 0.0
2017-Sep-19 04:27N 40°39' W 074°07'0 0.0
2017-Sep-19 03:57N 40°39' W 074°07'0 0.0
2017-Sep-19 03:27N 40°39' W 074°07'0 0.0
2017-Sep-19 02:57N 40°39' W 074°07'0 0.0
2017-Sep-19 02:21N 40°39' W 074°07'0 0.0
2017-Sep-19 01:36N 40°39' W 074°07'0 0.0
2017-Sep-19 01:30N 40°39' W 074°07'0 0.0
2017-Sep-19 01:00N 40°39' W 074°07'0 0.0
2017-Sep-19 00:30N 40°39' W 074°07'0 0.0
2017-Sep-19 00:00N 40°39' W 074°07'0 0.0
2017-Sep-18 23:24N 40°39' W 074°07'0 0.0
2017-Sep-18 23:00N 40°39' W 074°07'0 0.0
2017-Sep-18 22:27N 40°39' W 074°07'0 0.0
2017-Sep-18 20:03N 40°39' W 074°07'0 0.0
2017-Sep-18 19:45N 40°39' W 074°07'0 0.0
2017-Sep-18 19:21N 40°39' W 074°07'0 0.0
2017-Sep-18 18:39N 40°39' W 074°07'0 0.0
2017-Sep-18 18:09N 40°39' W 074°07'0 0.0
2017-Sep-18 17:57N 40°39' W 074°07'0 0.0
2017-Sep-18 17:27N 40°39' W 074°07'0 0.4
2017-Sep-18 17:00N 40°39' W 074°06'2 4.5
2017-Sep-18 16:31N 40°39' W 074°03'2 2.9
2017-Sep-18 15:59N 40°40' W 074°02'0 0.0
2017-Sep-18 15:29N 40°40' W 074°02'0 0.0
2017-Sep-18 14:59N 40°40' W 074°02'0 0.0
2017-Sep-18 14:29N 40°40' W 074°02'0 0.0
2017-Sep-18 13:59N 40°40' W 074°02'0 0.3
2017-Sep-18 13:29N 40°40' W 074°02'0 0.1
2017-Sep-18 12:59N 40°40' W 074°02'0 0.1
2017-Sep-18 12:29N 40°40' W 074°02'0 0.0
2017-Sep-18 11:59N 40°40' W 074°02'0 0.0
2017-Sep-18 11:29N 40°40' W 074°02'0 0.0
2017-Sep-18 10:59N 40°40' W 074°02'0 0.0
2017-Sep-18 10:26N 40°40' W 074°02'0 0.0
2017-Sep-18 09:59N 40°40' W 074°02'0 0.0
2017-Sep-18 09:29N 40°40' W 074°02'0 0.0
2017-Sep-18 08:59N 40°40' W 074°02'0 0.1
2017-Sep-18 08:29N 40°40' W 074°02'0 0.2
2017-Sep-18 07:59N 40°40' W 074°02'0 0.1
2017-Sep-18 07:29N 40°40' W 074°02'0 0.0
2017-Sep-18 06:59N 40°40' W 074°02'0 0.0
2017-Sep-18 06:29N 40°40' W 074°02'0 0.0
2017-Sep-18 05:59N 40°40' W 074°02'0 0.0
2017-Sep-18 05:29N 40°40' W 074°02'0 0.0
2017-Sep-18 04:59N 40°40' W 074°02'0 0.1
2017-Sep-18 04:29N 40°40' W 074°02'0 0.0
2017-Sep-18 03:59N 40°40' W 074°02'0 0.0
2017-Sep-18 03:29N 40°40' W 074°02'0 0.0
2017-Sep-18 02:59N 40°40' W 074°02'0 0.1
2017-Sep-18 02:29N 40°40' W 074°02'0 0.1
2017-Sep-18 01:59N 40°40' W 074°02'0 0.2
2017-Sep-18 01:29N 40°40' W 074°02'0 0.2
2017-Sep-18 00:59N 40°40' W 074°02'0 0.1
2017-Sep-18 00:29N 40°40' W 074°02'0 0.0
2017-Sep-17 23:59N 40°40' W 074°02'0 0.0
2017-Sep-17 23:29N 40°40' W 074°02'0 0.0
2017-Sep-17 22:59N 40°40' W 074°02'0 0.1
2017-Sep-17 22:29N 40°40' W 074°02'0 0.0
2017-Sep-17 21:29N 40°40' W 074°02'0 0.0
2017-Sep-17 20:59N 40°40' W 074°02'0 0.0
2017-Sep-17 20:29N 40°40' W 074°02'0 0.1
2017-Sep-17 19:59N 40°40' W 074°02'0 0.1
2017-Sep-17 19:29N 40°40' W 074°02'0 0.1
2017-Sep-17 18:59N 40°40' W 074°02'0 0.1
2017-Sep-17 18:29N 40°40' W 074°02'0 0.0
2017-Sep-17 17:59N 40°40' W 074°02'0 0.1
2017-Sep-17 17:29N 40°40' W 074°02'0 0.0
2017-Sep-17 16:59N 40°40' W 074°02'0 0.0
2017-Sep-17 16:29N 40°40' W 074°02'0 0.0
2017-Sep-17 15:59N 40°40' W 074°02'0 0.1
2017-Sep-17 15:28N 40°40' W 074°02'0 0.0
2017-Sep-17 14:58N 40°40' W 074°02'0 0.0
2017-Sep-17 14:28N 40°40' W 074°02'0 0.0
2017-Sep-17 13:58N 40°40' W 074°02'0 0.0
2017-Sep-17 13:28N 40°40' W 074°02'0 0.3
2017-Sep-17 12:58N 40°40' W 074°02'0 0.0
2017-Sep-17 12:28N 40°40' W 074°02'0 0.0
2017-Sep-17 11:58N 40°40' W 074°02'0 0.0
2017-Sep-17 11:28N 40°40' W 074°02'0 0.0
2017-Sep-17 11:01N 40°40' W 074°02'1 1.4
2017-Sep-17 10:31N 40°40' W 074°03'2 3.8
2017-Sep-17 10:01N 40°39' W 074°05'0 0.0
2017-Sep-17 09:30N 40°39' W 074°05'0 0.0
2017-Sep-17 08:57N 40°39' W 074°05'0 0.0
2017-Sep-17 08:30N 40°39' W 074°05'0 0.0
2017-Sep-17 08:00N 40°39' W 074°05'0 0.0
2017-Sep-17 07:30N 40°39' W 074°05'0 0.0
2017-Sep-17 07:00N 40°39' W 074°05'0 0.0
2017-Sep-17 06:30N 40°39' W 074°05'0 0.0
2017-Sep-17 06:00N 40°39' W 074°05'0 0.0
2017-Sep-17 05:30N 40°39' W 074°05'0 0.0
2017-Sep-17 05:00N 40°39' W 074°05'0 0.0
2017-Sep-17 04:30N 40°39' W 074°05'0 0.0
2017-Sep-17 04:00N 40°39' W 074°05'0 0.0
2017-Sep-17 03:30N 40°39' W 074°05'0 0.0
2017-Sep-17 03:00N 40°39' W 074°05'0 0.0
2017-Sep-17 02:30N 40°39' W 074°05'0 0.0
2017-Sep-17 02:00N 40°39' W 074°05'0 0.0
2017-Sep-17 01:30N 40°39' W 074°05'0 0.0
2017-Sep-17 01:00N 40°39' W 074°05'0 0.0
2017-Sep-17 00:27N 40°39' W 074°05'0 0.0
2017-Sep-16 23:57N 40°39' W 074°05'0 0.0
2017-Sep-16 23:30N 40°39' W 074°05'0 0.0
2017-Sep-16 23:00N 40°39' W 074°05'0 0.0
2017-Sep-16 22:30N 40°39' W 074°05'0 0.0
2017-Sep-16 22:00N 40°39' W 074°05'0 0.0
2017-Sep-16 21:30N 40°39' W 074°05'0 0.0
2017-Sep-16 21:00N 40°39' W 074°05'0 0.0
2017-Sep-16 20:27N 40°39' W 074°05'0 0.0
2017-Sep-16 20:00N 40°39' W 074°05'0 0.0
2017-Sep-16 19:30N 40°39' W 074°05'0 0.0
2017-Sep-16 19:00N 40°39' W 074°05'0 0.0
2017-Sep-16 18:30N 40°39' W 074°05'0 0.0
2017-Sep-16 18:00N 40°39' W 074°05'0 0.0
2017-Sep-16 17:29N 40°39' W 074°05'0 0.0
2017-Sep-16 16:59N 40°39' W 074°05'0 0.0
2017-Sep-16 16:29N 40°39' W 074°05'0 0.0
2017-Sep-16 15:59N 40°39' W 074°05'0 0.0
2017-Sep-16 15:26N 40°39' W 074°05'0 0.0
2017-Sep-16 14:59N 40°39' W 074°05'0 0.0
2017-Sep-16 14:29N 40°39' W 074°05'0 0.0
2017-Sep-16 13:59N 40°39' W 074°05'0 0.0
2017-Sep-16 13:29N 40°39' W 074°05'0 0.0
2017-Sep-16 12:59N 40°39' W 074°05'0 0.0
2017-Sep-16 12:29N 40°39' W 074°05'0 0.0
2017-Sep-16 11:59N 40°39' W 074°05'0 0.0
2017-Sep-16 11:29N 40°39' W 074°05'0 0.0
2017-Sep-16 10:59N 40°39' W 074°05'0 0.0
2017-Sep-16 10:29N 40°39' W 074°05'0 0.0
2017-Sep-16 09:59N 40°39' W 074°05'0 0.0
2017-Sep-16 09:29N 40°39' W 074°05'0 0.1
2017-Sep-16 09:00N 40°39' W 074°05'2 3.7
2017-Sep-16 08:30N 40°40' W 074°03'0 0.8
2017-Sep-16 08:00N 40°40' W 074°02'0 0.0
2017-Sep-16 07:30N 40°40' W 074°02'0 0.1
2017-Sep-16 07:00N 40°40' W 074°02'0 0.2
2017-Sep-16 06:30N 40°40' W 074°02'0 0.2
2017-Sep-16 06:00N 40°40' W 074°02'0 0.1
2017-Sep-16 05:30N 40°40' W 074°02'0 0.0
2017-Sep-16 05:00N 40°40' W 074°02'0 0.0
2017-Sep-16 04:30N 40°40' W 074°02'0 0.0
2017-Sep-16 04:00N 40°40' W 074°02'0 0.0
2017-Sep-16 03:30N 40°40' W 074°02'0 0.0
2017-Sep-16 03:00N 40°40' W 074°02'0 0.0
2017-Sep-16 02:30N 40°40' W 074°02'0 0.0
2017-Sep-16 02:00N 40°40' W 074°02'0 0.0
2017-Sep-16 01:30N 40°40' W 074°02'0 0.0
2017-Sep-16 01:00N 40°40' W 074°02'0 0.0
2017-Sep-16 00:30N 40°40' W 074°02'0 0.1
2017-Sep-16 00:00N 40°40' W 074°02'3 5.7
2017-Sep-15 23:30N 40°39' W 074°06'4 8.8
2017-Sep-15 23:00N 40°38' W 074°12'1 1.5
2017-Sep-15 22:27N 40°38' W 074°12'0 0.0
2017-Sep-15 20:30N 40°38' W 074°12'0 0.0
2017-Sep-15 20:00N 40°38' W 074°12'0 0.0
2017-Sep-15 18:54N 40°38' W 074°12'0 0.0
2017-Sep-15 18:24N 40°38' W 074°12'0 0.0
2017-Sep-15 18:00N 40°38' W 074°12'0 0.0
2017-Sep-15 17:30N 40°38' W 074°12'0 0.0
2017-Sep-15 10:54N 40°38' W 074°12'0 0.0
2017-Sep-15 10:24N 40°38' W 074°12'0 0.0
2017-Sep-15 05:51N 40°38' W 074°12'0 0.0
2017-Sep-14 21:48N 40°38' W 074°12'0 0.0
2017-Sep-14 21:24N 40°38' W 074°12'0 0.1
2017-Sep-14 21:00N 40°38' W 074°12'2 3.8
2017-Sep-14 20:31N 40°39' W 074°10'3 5.3
2017-Sep-14 20:01N 40°39' W 074°07'1 2.9
2017-Sep-14 19:31N 40°39' W 074°05'0 0.0
2017-Sep-14 18:58N 40°39' W 074°05'0 0.0
2017-Sep-14 18:28N 40°39' W 074°05'0 0.0
2017-Sep-14 17:58N 40°39' W 074°05'0 0.0
2017-Sep-14 17:31N 40°39' W 074°05'0 0.0
2017-Sep-14 17:01N 40°39' W 074°05'0 0.0
2017-Sep-14 16:30N 40°39' W 074°05'0 0.0
2017-Sep-14 16:00N 40°39' W 074°05'0 0.0
2017-Sep-14 15:30N 40°39' W 074°05'0 0.0
2017-Sep-14 15:00N 40°39' W 074°05'0 0.0
2017-Sep-14 14:30N 40°39' W 074°05'0 0.0
2017-Sep-14 14:00N 40°39' W 074°05'0 0.0
2017-Sep-14 13:27N 40°39' W 074°05'0 0.0
2017-Sep-14 13:00N 40°39' W 074°05'0 0.0
2017-Sep-14 12:30N 40°39' W 074°05'0 0.0
2017-Sep-14 12:00N 40°39' W 074°05'0 0.0
2017-Sep-14 11:30N 40°39' W 074°05'0 0.0
2017-Sep-14 11:00N 40°39' W 074°05'0 0.0
2017-Sep-14 10:30N 40°39' W 074°05'0 0.0
2017-Sep-14 10:00N 40°39' W 074°05'  
Track history (hours):
 
Tides and Currents Weather Stations Pressure Air Temp Water Temp Dewpoint Dewpoint Depression Visibility Wind Speed Wind Dir Waves Ship Positions

Scott Turecamo

Owner: Moran Towing Corp., New Canaan, CT. More information available from US FCC via Universal Licensing System and Coast Guard Vessel Documentation Center.

Last reported at 2017-Sep-24 09:58 UTC. Time now 2017-Sep-24 10:19 UTC.
Position N 40°38' W 074°12'.

Length 156 m; draft 5 m.

Type: . MMSI: 368009000.

Date/timePositionNaut miles runAvg speedWind from/ knotsBaromVisibWave heightAir tempDewpointWater temp
2017-Sep-24 09:58N 40°38' W 074°12'0 0.0
2017-Sep-24 09:28N 40°38' W 074°12'0 0.0
2017-Sep-24 08:58N 40°38' W 074°12'0 0.0
2017-Sep-24 08:30N 40°38' W 074°12'1 1.4
2017-Sep-24 08:00N 40°38' W 074°12'3 6.1
2017-Sep-24 07:29N 40°39' W 074°08'3 6.3
2017-Sep-24 07:00N 40°39' W 074°03'1 1.0
2017-Sep-24 06:27N 40°38' W 074°03'0 0.1
2017-Sep-24 06:00N 40°38' W 074°03'0 0.3
2017-Sep-24 05:30N 40°38' W 074°03'0 0.1
2017-Sep-24 05:00N 40°38' W 074°03'0 0.0
2017-Sep-24 04:30N 40°38' W 074°03'0 0.0
2017-Sep-24 04:00N 40°38' W 074°03'0 0.0
2017-Sep-24 03:30N 40°38' W 074°03'0 0.0
2017-Sep-24 03:00N 40°38' W 074°03'0 0.0
2017-Sep-24 02:30N 40°38' W 074°03'0 0.0
2017-Sep-24 02:00N 40°38' W 074°03'0 0.0
2017-Sep-24 01:30N 40°38' W 074°03'0 0.1
2017-Sep-24 01:00N 40°38' W 074°03'0 0.0
2017-Sep-24 00:30N 40°38' W 074°03'0 0.0
2017-Sep-24 00:00N 40°38' W 074°03'0 0.2
2017-Sep-23 23:30N 40°38' W 074°03'0 0.3
2017-Sep-23 22:57N 40°38' W 074°03'0 0.0
2017-Sep-23 22:30N 40°38' W 074°03'0 0.0
2017-Sep-23 22:00N 40°38' W 074°03'0 0.0
2017-Sep-23 21:21N 40°38' W 074°03'0 0.0
2017-Sep-23 21:00N 40°38' W 074°03'0 0.0
2017-Sep-23 20:30N 40°38' W 074°03'0 0.0
2017-Sep-23 20:00N 40°38' W 074°03'3 0.1
2017-Sep-22 01:56N 40°39' W 074°07'0 0.0
2017-Sep-22 01:26N 40°39' W 074°07'0 0.0
2017-Sep-22 00:59N 40°39' W 074°07'0 0.0
2017-Sep-22 00:29N 40°39' W 074°07'0 0.0
2017-Sep-21 23:59N 40°39' W 074°07'0 0.0
2017-Sep-21 23:29N 40°39' W 074°07'0 0.0
2017-Sep-21 22:59N 40°39' W 074°07'0 0.0
2017-Sep-21 22:29N 40°39' W 074°07'0 0.0
2017-Sep-21 21:59N 40°39' W 074°07'0 0.0
2017-Sep-21 21:29N 40°39' W 074°07'0 0.0
2017-Sep-21 20:59N 40°39' W 074°07'0 0.0
2017-Sep-21 20:30N 40°39' W 074°07'1 1.5
2017-Sep-21 20:00N 40°39' W 074°06'3 5.5
2017-Sep-21 19:30N 40°37' W 074°03'2 4.2
2017-Sep-21 19:00N 40°36' W 074°01'0 0.0
2017-Sep-21 18:30N 40°36' W 074°01'0 0.0
2017-Sep-21 18:00N 40°36' W 074°01'0 0.0
2017-Sep-21 17:29N 40°36' W 074°01'0 0.0
2017-Sep-21 16:59N 40°36' W 074°01'1 1.7
2017-Sep-21 16:30N 40°36' W 074°02'4 7.7
2017-Sep-21 16:00N 40°39' W 074°06'4 8.4
2017-Sep-21 15:30N 40°39' W 074°11'1 2.3
2017-Sep-21 15:00N 40°38' W 074°12'0 0.0
2017-Sep-21 14:30N 40°38' W 074°12'0 0.0
2017-Sep-21 14:00N 40°38' W 074°12'0 0.0
2017-Sep-21 13:30N 40°38' W 074°12'0 0.0
2017-Sep-21 13:00N 40°38' W 074°12'0 0.0
2017-Sep-21 12:30N 40°38' W 074°12'0 0.0
2017-Sep-21 12:00N 40°38' W 074°12'0 0.0
2017-Sep-21 11:30N 40°38' W 074°12'0 0.0
2017-Sep-21 11:00N 40°38' W 074°12'0 0.0
2017-Sep-21 10:30N 40°38' W 074°12'0 0.0
2017-Sep-21 10:00N 40°38' W 074°12'0 0.0
2017-Sep-21 09:30N 40°38' W 074°12'0 0.0
2017-Sep-21 09:00N 40°38' W 074°12'0 0.0
2017-Sep-21 08:29N 40°38' W 074°12'0 0.0
2017-Sep-21 08:00N 40°38' W 074°12'0 0.0
2017-Sep-21 07:30N 40°38' W 074°12'0 0.0
2017-Sep-21 07:00N 40°38' W 074°12'0 0.0
2017-Sep-21 06:30N 40°38' W 074°12'0 0.0
2017-Sep-21 06:00N 40°38' W 074°12'0 0.0
2017-Sep-21 05:30N 40°38' W 074°12'0 0.0
2017-Sep-21 05:00N 40°38' W 074°12'0 0.0
2017-Sep-21 04:30N 40°38' W 074°12'0 0.0
2017-Sep-21 03:54N 40°38' W 074°12'0 0.0
2017-Sep-21 03:30N 40°38' W 074°12'0 0.0
2017-Sep-21 03:00N 40°38' W 074°12'0 0.0
2017-Sep-21 02:29N 40°38' W 074°12'0 0.0
2017-Sep-21 02:00N 40°38' W 074°12'0 0.0
2017-Sep-21 01:30N 40°38' W 074°12'0 0.0
2017-Sep-21 01:00N 40°38' W 074°12'0 0.0
2017-Sep-21 00:30N 40°38' W 074°12'0 0.0
2017-Sep-21 00:00N 40°38' W 074°12'0 0.0
2017-Sep-20 23:30N 40°38' W 074°12'0 0.0
2017-Sep-20 23:00N 40°38' W 074°12'0 0.0
2017-Sep-20 22:30N 40°38' W 074°12'0 0.0
2017-Sep-20 22:00N 40°38' W 074°12'0 0.0
2017-Sep-20 21:30N 40°38' W 074°12'0 0.0
2017-Sep-20 21:00N 40°38' W 074°12'0 0.0
2017-Sep-20 20:30N 40°38' W 074°12'0 0.0
2017-Sep-20 20:00N 40°38' W 074°12'0 0.0
2017-Sep-20 19:30N 40°38' W 074°12'0 0.0
2017-Sep-20 19:00N 40°38' W 074°12'0 0.0
2017-Sep-20 18:30N 40°38' W 074°12'0 0.0
2017-Sep-20 18:00N 40°38' W 074°12'0 0.0
2017-Sep-20 17:30N 40°38' W 074°12'0 0.0
2017-Sep-20 17:00N 40°38' W 074°12'0 0.0
2017-Sep-20 16:30N 40°38' W 074°12'0 0.0
2017-Sep-20 16:00N 40°38' W 074°12'0 0.0
2017-Sep-20 15:30N 40°38' W 074°12'0 0.0
2017-Sep-20 15:00N 40°38' W 074°12'4 4.3
2017-Sep-20 14:00N 40°39' W 074°07'3 6.6
2017-Sep-20 13:30N 40°37' W 074°03'2 3.5
2017-Sep-20 12:58N 40°36' W 074°01'0 0.0
2017-Sep-20 12:25N 40°36' W 074°01'0 0.0
2017-Sep-20 11:58N 40°36' W 074°01'0 0.0
2017-Sep-20 11:28N 40°36' W 074°01'0 0.0
2017-Sep-20 10:58N 40°36' W 074°01'0 0.0
2017-Sep-20 10:28N 40°36' W 074°01'0 0.0
2017-Sep-20 10:00N 40°36' W 074°01'1 1.7
2017-Sep-20 09:30N 40°36' W 074°02'4 7.4
2017-Sep-20 09:00N 40°39' W 074°06'0 0.0
2017-Sep-20 08:30N 40°39' W 074°06'0 0.0
2017-Sep-20 08:00N 40°39' W 074°06'0 0.0
2017-Sep-20 07:30N 40°39' W 074°06'0 0.0
2017-Sep-20 07:00N 40°39' W 074°06'0 0.0
2017-Sep-20 06:30N 40°39' W 074°06'0 0.0
2017-Sep-20 06:00N 40°39' W 074°06'0 0.0
2017-Sep-20 05:30N 40°39' W 074°06'0 0.0
2017-Sep-20 05:00N 40°39' W 074°06'0 0.0
2017-Sep-20 04:30N 40°39' W 074°06'0 0.0
2017-Sep-20 04:00N 40°39' W 074°06'0 0.0
2017-Sep-20 03:30N 40°39' W 074°06'0 0.0
2017-Sep-20 03:00N 40°39' W 074°06'0 0.0
2017-Sep-20 02:30N 40°39' W 074°06'0 0.0
2017-Sep-20 02:00N 40°39' W 074°06'0 0.0
2017-Sep-20 01:30N 40°39' W 074°06'0 0.0
2017-Sep-20 01:00N 40°39' W 074°06'0 0.0
2017-Sep-20 00:30N 40°39' W 074°06'0 0.0
2017-Sep-20 00:00N 40°39' W 074°06'0 0.0
2017-Sep-19 23:30N 40°39' W 074°06'0 0.0
2017-Sep-19 23:00N 40°39' W 074°06'0 0.0
2017-Sep-19 22:30N 40°39' W 074°06'0 0.0
2017-Sep-19 22:00N 40°39' W 074°06'0 0.0
2017-Sep-19 21:30N 40°39' W 074°06'0 0.0
2017-Sep-19 21:00N 40°39' W 074°06'0 0.0
2017-Sep-19 20:30N 40°39' W 074°06'0 0.0
2017-Sep-19 20:00N 40°39' W 074°06'0 0.0
2017-Sep-19 19:30N 40°39' W 074°06'0 0.0
2017-Sep-19 19:00N 40°39' W 074°06'1 1.5
2017-Sep-19 18:30N 40°39' W 074°06'0 0.2
2017-Sep-19 17:57N 40°39' W 074°07'0 0.0
2017-Sep-19 17:18N 40°39' W 074°07'1 2.7
2017-Sep-19 16:54N 40°38' W 074°08'0 0.0
2017-Sep-19 16:27N 40°38' W 074°08'1 1.1
2017-Sep-19 16:00N 40°39' W 074°07'1 0.9
2017-Sep-19 15:25N 40°39' W 074°07'0 0.0
2017-Sep-19 14:58N 40°39' W 074°07'0 0.0
2017-Sep-19 14:22N 40°39' W 074°07'0 0.0
2017-Sep-19 13:55N 40°39' W 074°07'0 0.0
2017-Sep-19 13:28N 40°39' W 074°07'0 0.0
2017-Sep-19 12:55N 40°39' W 074°07'0 0.0
2017-Sep-19 12:25N 40°39' W 074°07'0 0.0
2017-Sep-19 11:55N 40°39' W 074°07'0 0.0
2017-Sep-19 11:31N 40°39' W 074°07'0 0.0
2017-Sep-19 11:01N 40°39' W 074°07'0 0.0
2017-Sep-19 10:30N 40°39' W 074°07'0 0.0
2017-Sep-19 10:00N 40°39' W 074°07'0 0.0
2017-Sep-19 09:27N 40°39' W 074°07'0 0.0
2017-Sep-19 09:00N 40°39' W 074°07'0 0.0
2017-Sep-19 08:30N 40°39' W 074°07'0 0.0
2017-Sep-19 08:00N 40°39' W 074°07'0 0.0
2017-Sep-19 07:27N 40°39' W 074°07'0 0.0
2017-Sep-19 07:00N 40°39' W 074°07'0 0.0
2017-Sep-19 06:30N 40°39' W 074°07'0 0.0
2017-Sep-19 06:00N 40°39' W 074°07'0 0.0
2017-Sep-19 05:27N 40°39' W 074°07'0 0.0
2017-Sep-19 05:00N 40°39' W 074°07'0 0.0
2017-Sep-19 04:27N 40°39' W 074°07'0 0.0
2017-Sep-19 03:57N 40°39' W 074°07'0 0.0
2017-Sep-19 03:27N 40°39' W 074°07'0 0.0
2017-Sep-19 02:57N 40°39' W 074°07'0 0.0
2017-Sep-19 02:21N 40°39' W 074°07'0 0.0
2017-Sep-19 01:36N 40°39' W 074°07'0 0.0
2017-Sep-19 01:30N 40°39' W 074°07'0 0.0
2017-Sep-19 01:00N 40°39' W 074°07'0 0.0
2017-Sep-19 00:30N 40°39' W 074°07'0 0.0
2017-Sep-19 00:00N 40°39' W 074°07'0 0.0
2017-Sep-18 23:24N 40°39' W 074°07'0 0.0
2017-Sep-18 23:00N 40°39' W 074°07'0 0.0
2017-Sep-18 22:27N 40°39' W 074°07'0 0.0
2017-Sep-18 20:03N 40°39' W 074°07'0 0.0
2017-Sep-18 19:45N 40°39' W 074°07'0 0.0
2017-Sep-18 19:21N 40°39' W 074°07'0 0.0
2017-Sep-18 18:39N 40°39' W 074°07'0 0.0
2017-Sep-18 18:09N 40°39' W 074°07'0 0.0
2017-Sep-18 17:57N 40°39' W 074°07'0 0.0
2017-Sep-18 17:27N 40°39' W 074°07'0 0.4
2017-Sep-18 17:00N 40°39' W 074°06'2 4.5
2017-Sep-18 16:31N 40°39' W 074°03'2 2.9
2017-Sep-18 15:59N 40°40' W 074°02'0 0.0
2017-Sep-18 15:29N 40°40' W 074°02'0 0.0
2017-Sep-18 14:59N 40°40' W 074°02'0 0.0
2017-Sep-18 14:29N 40°40' W 074°02'0 0.0
2017-Sep-18 13:59N 40°40' W 074°02'0 0.3
2017-Sep-18 13:29N 40°40' W 074°02'0 0.1
2017-Sep-18 12:59N 40°40' W 074°02'0 0.1
2017-Sep-18 12:29N 40°40' W 074°02'0 0.0
2017-Sep-18 11:59N 40°40' W 074°02'0 0.0
2017-Sep-18 11:29N 40°40' W 074°02'0 0.0
2017-Sep-18 10:59N 40°40' W 074°02'0 0.0
2017-Sep-18 10:26N 40°40' W 074°02'0 0.0
2017-Sep-18 09:59N 40°40' W 074°02'0 0.0
2017-Sep-18 09:29N 40°40' W 074°02'0 0.0
2017-Sep-18 08:59N 40°40' W 074°02'0 0.1
2017-Sep-18 08:29N 40°40' W 074°02'0 0.2
2017-Sep-18 07:59N 40°40' W 074°02'0 0.1
2017-Sep-18 07:29N 40°40' W 074°02'0 0.0
2017-Sep-18 06:59N 40°40' W 074°02'0 0.0
2017-Sep-18 06:29N 40°40' W 074°02'0 0.0
2017-Sep-18 05:59N 40°40' W 074°02'0 0.0
2017-Sep-18 05:29N 40°40' W 074°02'0 0.0
2017-Sep-18 04:59N 40°40' W 074°02'0 0.1
2017-Sep-18 04:29N 40°40' W 074°02'0 0.0
2017-Sep-18 03:59N 40°40' W 074°02'0 0.0
2017-Sep-18 03:29N 40°40' W 074°02'0 0.0
2017-Sep-18 02:59N 40°40' W 074°02'0 0.1
2017-Sep-18 02:29N 40°40' W 074°02'0 0.1
2017-Sep-18 01:59N 40°40' W 074°02'0 0.2
2017-Sep-18 01:29N 40°40' W 074°02'0 0.2
2017-Sep-18 00:59N 40°40' W 074°02'0 0.1
2017-Sep-18 00:29N 40°40' W 074°02'0 0.0
2017-Sep-17 23:59N 40°40' W 074°02'0 0.0
2017-Sep-17 23:29N 40°40' W 074°02'0 0.0
2017-Sep-17 22:59N 40°40' W 074°02'0 0.1
2017-Sep-17 22:29N 40°40' W 074°02'0 0.0
2017-Sep-17 21:29N 40°40' W 074°02'0 0.0
2017-Sep-17 20:59N 40°40' W 074°02'0 0.0
2017-Sep-17 20:29N 40°40' W 074°02'0 0.1
2017-Sep-17 19:59N 40°40' W 074°02'0 0.1
2017-Sep-17 19:29N 40°40' W 074°02'0 0.1
2017-Sep-17 18:59N 40°40' W 074°02'0 0.1
2017-Sep-17 18:29N 40°40' W 074°02'0 0.0
2017-Sep-17 17:59N 40°40' W 074°02'0 0.1
2017-Sep-17 17:29N 40°40' W 074°02'0 0.0
2017-Sep-17 16:59N 40°40' W 074°02'0 0.0
2017-Sep-17 16:29N 40°40' W 074°02'0 0.0
2017-Sep-17 15:59N 40°40' W 074°02'0 0.1
2017-Sep-17 15:28N 40°40' W 074°02'0 0.0
2017-Sep-17 14:58N 40°40' W 074°02'0 0.0
2017-Sep-17 14:28N 40°40' W 074°02'0 0.0
2017-Sep-17 13:58N 40°40' W 074°02'0 0.0
2017-Sep-17 13:28N 40°40' W 074°02'0 0.3
2017-Sep-17 12:58N 40°40' W 074°02'0 0.0
2017-Sep-17 12:28N 40°40' W 074°02'0 0.0
2017-Sep-17 11:58N 40°40' W 074°02'0 0.0
2017-Sep-17 11:28N 40°40' W 074°02'0 0.0
2017-Sep-17 11:01N 40°40' W 074°02'1 1.4
2017-Sep-17 10:31N 40°40' W 074°03'2 3.8
2017-Sep-17 10:01N 40°39' W 074°05'0 0.0
2017-Sep-17 09:30N 40°39' W 074°05'0 0.0
2017-Sep-17 08:57N 40°39' W 074°05'0 0.0
2017-Sep-17 08:30N 40°39' W 074°05'0 0.0
2017-Sep-17 08:00N 40°39' W 074°05'0 0.0
2017-Sep-17 07:30N 40°39' W 074°05'0 0.0
2017-Sep-17 07:00N 40°39' W 074°05'0 0.0
2017-Sep-17 06:30N 40°39' W 074°05'0 0.0
2017-Sep-17 06:00N 40°39' W 074°05'0 0.0
2017-Sep-17 05:30N 40°39' W 074°05'0 0.0
2017-Sep-17 05:00N 40°39' W 074°05'0 0.0
2017-Sep-17 04:30N 40°39' W 074°05'0 0.0
2017-Sep-17 04:00N 40°39' W 074°05'0 0.0
2017-Sep-17 03:30N 40°39' W 074°05'0 0.0
2017-Sep-17 03:00N 40°39' W 074°05'0 0.0
2017-Sep-17 02:30N 40°39' W 074°05'0 0.0
2017-Sep-17 02:00N 40°39' W 074°05'0 0.0
2017-Sep-17 01:30N 40°39' W 074°05'0 0.0
2017-Sep-17 01:00N 40°39' W 074°05'0 0.0
2017-Sep-17 00:27N 40°39' W 074°05'0 0.0
2017-Sep-16 23:57N 40°39' W 074°05'0 0.0
2017-Sep-16 23:30N 40°39' W 074°05'0 0.0
2017-Sep-16 23:00N 40°39' W 074°05'0 0.0
2017-Sep-16 22:30N 40°39' W 074°05'0 0.0
2017-Sep-16 22:00N 40°39' W 074°05'0 0.0
2017-Sep-16 21:30N 40°39' W 074°05'0 0.0
2017-Sep-16 21:00N 40°39' W 074°05'0 0.0
2017-Sep-16 20:27N 40°39' W 074°05'0 0.0
2017-Sep-16 20:00N 40°39' W 074°05'0 0.0
2017-Sep-16 19:30N 40°39' W 074°05'0 0.0
2017-Sep-16 19:00N 40°39' W 074°05'0 0.0
2017-Sep-16 18:30N 40°39' W 074°05'0 0.0
2017-Sep-16 18:00N 40°39' W 074°05'0 0.0
2017-Sep-16 17:29N 40°39' W 074°05'0 0.0
2017-Sep-16 16:59N 40°39' W 074°05'0 0.0
2017-Sep-16 16:29N 40°39' W 074°05'0 0.0
2017-Sep-16 15:59N 40°39' W 074°05'0 0.0
2017-Sep-16 15:26N 40°39' W 074°05'0 0.0
2017-Sep-16 14:59N 40°39' W 074°05'0 0.0
2017-Sep-16 14:29N 40°39' W 074°05'0 0.0
2017-Sep-16 13:59N 40°39' W 074°05'0 0.0
2017-Sep-16 13:29N 40°39' W 074°05'0 0.0
2017-Sep-16 12:59N 40°39' W 074°05'0 0.0
2017-Sep-16 12:29N 40°39' W 074°05'0 0.0
2017-Sep-16 11:59N 40°39' W 074°05'0 0.0
2017-Sep-16 11:29N 40°39' W 074°05'0 0.0
2017-Sep-16 10:59N 40°39' W 074°05'0 0.0
2017-Sep-16 10:29N 40°39' W 074°05'0 0.0
2017-Sep-16 09:59N 40°39' W 074°05'0 0.0
2017-Sep-16 09:29N 40°39' W 074°05'0 0.1
2017-Sep-16 09:00N 40°39' W 074°05'2 3.7
2017-Sep-16 08:30N 40°40' W 074°03'0 0.8
2017-Sep-16 08:00N 40°40' W 074°02'0 0.0
2017-Sep-16 07:30N 40°40' W 074°02'0 0.1
2017-Sep-16 07:00N 40°40' W 074°02'0 0.2
2017-Sep-16 06:30N 40°40' W 074°02'0 0.2
2017-Sep-16 06:00N 40°40' W 074°02'0 0.1
2017-Sep-16 05:30N 40°40' W 074°02'0 0.0
2017-Sep-16 05:00N 40°40' W 074°02'0 0.0
2017-Sep-16 04:30N 40°40' W 074°02'0 0.0
2017-Sep-16 04:00N 40°40' W 074°02'0 0.0
2017-Sep-16 03:30N 40°40' W 074°02'0 0.0
2017-Sep-16 03:00N 40°40' W 074°02'0 0.0
2017-Sep-16 02:30N 40°40' W 074°02'0 0.0
2017-Sep-16 02:00N 40°40' W 074°02'0 0.0
2017-Sep-16 01:30N 40°40' W 074°02'0 0.0
2017-Sep-16 01:00N 40°40' W 074°02'0 0.0
2017-Sep-16 00:30N 40°40' W 074°02'0 0.1
2017-Sep-16 00:00N 40°40' W 074°02'3 5.7
2017-Sep-15 23:30N 40°39' W 074°06'4 8.8
2017-Sep-15 23:00N 40°38' W 074°12'1 1.5
2017-Sep-15 22:27N 40°38' W 074°12'0 0.0
2017-Sep-15 20:30N 40°38' W 074°12'0 0.0
2017-Sep-15 20:00N 40°38' W 074°12'0 0.0
2017-Sep-15 18:54N 40°38' W 074°12'0 0.0
2017-Sep-15 18:24N 40°38' W 074°12'0 0.0
2017-Sep-15 18:00N 40°38' W 074°12'0 0.0
2017-Sep-15 17:30N 40°38' W 074°12'0 0.0
2017-Sep-15 10:54N 40°38' W 074°12'0 0.0
2017-Sep-15 10:24N 40°38' W 074°12'0 0.0
2017-Sep-15 05:51N 40°38' W 074°12'0 0.0
2017-Sep-14 21:48N 40°38' W 074°12'0 0.0
2017-Sep-14 21:24N 40°38' W 074°12'0 0.1
2017-Sep-14 21:00N 40°38' W 074°12'2 3.8
2017-Sep-14 20:31N 40°39' W 074°10'3 5.3
2017-Sep-14 20:01N 40°39' W 074°07'1 2.9
2017-Sep-14 19:31N 40°39' W 074°05'0 0.0
2017-Sep-14 18:58N 40°39' W 074°05'0 0.0
2017-Sep-14 18:28N 40°39' W 074°05'0 0.0
2017-Sep-14 17:58N 40°39' W 074°05'0 0.0
2017-Sep-14 17:31N 40°39' W 074°05'0 0.0
2017-Sep-14 17:01N 40°39' W 074°05'0 0.0
2017-Sep-14 16:30N 40°39' W 074°05'0 0.0
2017-Sep-14 16:00N 40°39' W 074°05'0 0.0
2017-Sep-14 15:30N 40°39' W 074°05'0 0.0
2017-Sep-14 15:00N 40°39' W 074°05'0 0.0
2017-Sep-14 14:30N 40°39' W 074°05'0 0.0
2017-Sep-14 14:00N 40°39' W 074°05'0 0.0
2017-Sep-14 13:27N 40°39' W 074°05'0 0.0
2017-Sep-14 13:00N 40°39' W 074°05'0 0.0
2017-Sep-14 12:30N 40°39' W 074°05'0 0.0
2017-Sep-14 12:00N 40°39' W 074°05'0 0.0
2017-Sep-14 11:30N 40°39' W 074°05'0 0.0
2017-Sep-14 11:00N 40°39' W 074°05'0 0.0
2017-Sep-14 10:30N 40°39' W 074°05'0 0.0
2017-Sep-14 10:00N 40°39' W 074°05'  

Dump ship's entire track history